createdAt,value
2024-05-09T00:01:38.384Z,8.01
2024-05-09T00:04:40.897Z,7.94
2024-05-09T00:07:43.416Z,7.88
2024-05-09T00:10:46.067Z,7.81
2024-05-09T00:13:48.656Z,7.73
2024-05-09T00:16:51.257Z,7.67
2024-05-09T00:19:53.980Z,7.57
2024-05-09T00:22:56.581Z,7.40
2024-05-09T00:25:59.104Z,7.22
2024-05-09T00:29:01.697Z,7.07
2024-05-09T00:32:04.732Z,6.92
2024-05-09T00:35:07.491Z,6.78
2024-05-09T00:38:10.776Z,6.65
2024-05-09T00:41:16.346Z,6.55
2024-05-09T00:44:19.674Z,6.45
2024-05-09T00:47:23.984Z,6.35
2024-05-09T00:50:35.452Z,6.26
2024-05-09T00:53:39.910Z,6.17
2024-05-09T00:56:42.704Z,6.16
2024-05-09T00:59:45.315Z,6.21
2024-05-09T01:02:47.964Z,6.28
2024-05-09T01:05:50.615Z,6.36
2024-05-09T01:08:53.455Z,6.44
2024-05-09T01:11:56.220Z,6.49
2024-05-09T01:14:58.815Z,6.52
2024-05-09T01:18:06.874Z,6.57
2024-05-09T01:21:09.898Z,6.62
2024-05-09T01:24:12.461Z,6.66
2024-05-09T01:27:14.974Z,6.70
2024-05-09T01:30:21.360Z,6.77
2024-05-09T01:33:30.989Z,6.80
2024-05-09T01:36:33.777Z,6.78
2024-05-09T01:39:36.282Z,6.77
2024-05-09T01:42:38.764Z,6.66
2024-05-09T01:45:41.775Z,6.48
2024-05-09T01:48:44.885Z,6.29
2024-05-09T01:51:47.441Z,6.12
2024-05-09T01:54:49.937Z,6.00
2024-05-09T01:57:52.488Z,5.96
2024-05-09T02:00:55.047Z,5.92
2024-05-09T02:03:57.738Z,5.88
2024-05-09T02:07:00.363Z,5.87
2024-05-09T02:10:08.366Z,5.92
2024-05-09T02:13:14.035Z,5.96
2024-05-09T02:16:16.549Z,5.88
2024-05-09T02:19:19.164Z,5.73
2024-05-09T02:22:21.667Z,5.55
2024-05-09T02:25:24.799Z,5.39
2024-05-09T02:28:27.308Z,5.25
2024-05-09T02:31:29.814Z,5.10
2024-05-09T02:34:32.882Z,4.96
2024-05-09T02:37:35.389Z,4.86
2024-05-09T02:40:39.493Z,4.78
2024-05-09T02:43:42.838Z,4.73
2024-05-09T02:46:45.381Z,4.70
2024-05-09T02:49:47.947Z,4.67
2024-05-09T02:52:50.583Z,4.65
2024-05-09T02:55:53.194Z,4.61
2024-05-09T02:58:56.674Z,4.55
2024-05-09T03:02:00.770Z,4.49
2024-05-09T03:05:09.911Z,4.44
2024-05-09T03:08:12.730Z,4.38
2024-05-09T03:11:25.277Z,4.36
2024-05-09T03:14:28.370Z,4.33
2024-05-09T03:17:31.248Z,4.31
2024-05-09T03:20:35.849Z,4.30
2024-05-09T03:23:42.809Z,4.32
2024-05-09T03:26:45.572Z,4.37
2024-05-09T03:29:48.041Z,4.47
2024-05-09T03:32:50.701Z,4.93
2024-05-09T03:35:53.212Z,5.78
2024-05-09T03:38:55.732Z,6.77
2024-05-09T03:41:58.235Z,7.88
2024-05-09T03:45:00.742Z,9.03
2024-05-09T03:48:03.526Z,10.18
2024-05-09T03:51:06.861Z,11.34
2024-05-09T03:54:09.641Z,12.44
2024-05-09T03:57:12.144Z,13.48
2024-05-09T04:00:18.354Z,14.64
2024-05-09T04:03:28.983Z,15.86
2024-05-09T04:06:31.602Z,16.91
2024-05-09T04:09:34.066Z,17.83
2024-05-09T04:12:37.280Z,18.68
2024-05-09T04:15:39.860Z,19.51
2024-05-09T04:18:42.434Z,20.22
2024-05-09T04:21:44.923Z,20.89
2024-05-09T04:24:48.119Z,21.54
2024-05-09T04:27:55.377Z,21.99
2024-05-09T04:30:57.890Z,22.36
2024-05-09T04:34:00.508Z,22.74
2024-05-09T04:37:03.326Z,23.18
2024-05-09T04:40:08.974Z,23.59
2024-05-09T04:43:19.309Z,23.29
2024-05-09T04:46:21.852Z,21.79
2024-05-09T04:49:24.592Z,20.19
2024-05-09T04:52:27.104Z,18.80
2024-05-09T04:55:29.602Z,17.65
2024-05-09T04:58:32.106Z,16.73
2024-05-09T05:01:34.615Z,16.01
2024-05-09T05:04:37.118Z,15.45
2024-05-09T05:07:39.637Z,15.03
2024-05-09T05:10:42.677Z,14.73
2024-05-09T05:13:45.240Z,14.45
2024-05-09T05:16:47.853Z,14.19
2024-05-09T05:19:50.489Z,13.95
2024-05-09T05:22:53.053Z,13.79
2024-05-09T05:25:55.903Z,13.69
2024-05-09T05:28:58.553Z,13.64
2024-05-09T05:32:01.304Z,13.63
2024-05-09T05:35:04.771Z,13.62
2024-05-09T05:38:07.916Z,13.69
2024-05-09T05:41:10.520Z,13.76
2024-05-09T05:44:14.183Z,13.79
2024-05-09T05:47:16.870Z,13.80
2024-05-09T05:50:27.392Z,13.80
2024-05-09T05:53:35.793Z,13.87
2024-05-09T05:56:38.485Z,13.89
2024-05-09T05:59:41.095Z,13.93
2024-05-09T06:02:43.812Z,13.91
2024-05-09T06:05:46.604Z,13.86
2024-05-09T06:08:49.359Z,13.80
2024-05-09T06:11:52.066Z,13.82
2024-05-09T06:14:54.617Z,13.84
2024-05-09T06:17:57.266Z,13.89
2024-05-09T06:20:59.930Z,13.96
2024-05-09T06:24:06.229Z,14.07
2024-05-09T06:27:09.399Z,14.14
2024-05-09T06:30:24.851Z,14.12
2024-05-09T06:33:32.190Z,14.23
2024-05-09T06:36:34.941Z,14.35
2024-05-09T06:39:37.340Z,14.43
2024-05-09T06:42:39.860Z,14.45
2024-05-09T06:45:42.498Z,14.44
2024-05-09T06:48:45.479Z,14.50
2024-05-09T06:51:48.287Z,14.60
2024-05-09T06:54:50.761Z,14.66
2024-05-09T06:57:53.278Z,14.66
2024-05-09T07:00:55.733Z,14.75
2024-05-09T07:03:58.308Z,14.90
2024-05-09T07:07:00.833Z,15.05
2024-05-09T07:10:04.089Z,15.09
2024-05-09T07:13:13.216Z,15.16
2024-05-09T07:16:16.055Z,15.23
2024-05-09T07:19:19.073Z,15.33
2024-05-09T07:22:22.833Z,15.48
2024-05-09T07:25:25.304Z,15.54
2024-05-09T07:28:27.713Z,15.52
2024-05-09T07:31:31.224Z,15.56
2024-05-09T07:34:34.089Z,15.66
2024-05-09T07:37:36.684Z,15.74
2024-05-09T07:40:40.664Z,15.81
2024-05-09T07:43:44.243Z,15.90
2024-05-09T07:47:48.536Z,16.05
2024-05-09T07:53:37.761Z,16.25
2024-05-09T07:56:37.360Z,16.34
2024-05-09T07:59:39.911Z,16.38
2024-05-09T08:02:42.436Z,16.47
2024-05-09T08:05:44.955Z,16.59
2024-05-09T08:08:47.681Z,16.64
2024-05-09T08:11:52.394Z,16.76
2024-05-09T08:14:56.127Z,16.82
2024-05-09T08:18:00.001Z,16.91
2024-05-09T08:21:02.654Z,17.00
2024-05-09T08:24:05.430Z,17.02
2024-05-09T08:27:08.065Z,17.02
2024-05-09T08:30:18.802Z,17.01
2024-05-09T08:33:27.517Z,17.00
2024-05-09T08:36:30.122Z,17.05
2024-05-09T08:39:32.644Z,17.03
2024-05-09T08:42:36.513Z,16.97
2024-05-09T08:45:41.866Z,17.03
2024-05-09T08:48:48.024Z,17.17
2024-05-09T08:51:50.865Z,17.25
2024-05-09T08:54:54.942Z,17.36
2024-05-09T08:57:59.110Z,17.39
2024-05-09T09:01:03.743Z,17.29
2024-05-09T09:04:09.577Z,17.22
2024-05-09T09:07:12.698Z,17.14
2024-05-09T09:10:28.901Z,17.17
2024-05-09T09:13:34.207Z,17.34
2024-05-09T09:16:37.314Z,17.40
2024-05-09T09:19:40.266Z,17.42
2024-05-09T09:22:42.742Z,17.52
2024-05-09T09:25:45.353Z,17.60
2024-05-09T09:28:47.906Z,17.73
2024-05-09T09:31:59.942Z,17.76
2024-05-09T09:35:02.608Z,17.72
2024-05-09T09:38:07.307Z,17.67
2024-05-09T09:41:12.961Z,17.71
2024-05-09T09:44:16.906Z,17.70
2024-05-09T09:47:20.363Z,17.65
2024-05-09T09:50:31.724Z,17.70
2024-05-09T09:53:38.236Z,17.70
2024-05-09T09:56:41.531Z,17.73
2024-05-09T09:59:46.669Z,17.79
2024-05-09T10:02:49.187Z,17.83
2024-05-09T10:05:52.369Z,17.87
2024-05-09T10:08:55.386Z,17.83
2024-05-09T10:12:09.605Z,17.76
2024-05-09T10:15:12.409Z,17.68
2024-05-09T10:18:15.373Z,17.66
2024-05-09T10:21:19.210Z,17.59
2024-05-09T10:24:21.647Z,17.61
2024-05-09T10:27:28.208Z,17.66
2024-05-09T10:30:35.855Z,17.67
2024-05-09T10:33:50.843Z,17.73
2024-05-09T10:36:54.658Z,17.90
2024-05-09T10:39:58.576Z,17.90
2024-05-09T10:43:05.814Z,17.83
2024-05-09T10:46:11.030Z,17.76
2024-05-09T10:49:14.735Z,17.78
2024-05-09T10:52:20.998Z,17.77
2024-05-09T10:55:23.569Z,17.79
2024-05-09T10:58:27.040Z,17.80
2024-05-09T11:01:29.615Z,17.87
2024-05-09T11:04:36.900Z,17.90
2024-05-09T11:07:39.515Z,18.04
2024-05-09T11:10:44.397Z,18.13
2024-05-09T11:13:47.028Z,18.17
2024-05-09T11:17:06.251Z,18.17
2024-05-09T11:20:16.705Z,18.21
2024-05-09T11:23:26.988Z,18.22
2024-05-09T11:26:31.773Z,18.28
2024-05-09T11:29:44.654Z,18.29
2024-05-09T11:32:47.267Z,18.34
2024-05-09T11:35:49.891Z,18.39
2024-05-09T11:38:52.529Z,18.41
2024-05-09T11:41:55.001Z,18.37
2024-05-09T11:44:57.501Z,18.41
2024-05-09T11:48:00.245Z,18.45
2024-05-09T11:51:02.860Z,18.54
2024-05-09T11:54:05.352Z,18.66
2024-05-09T11:57:09.370Z,18.78
2024-05-09T12:00:18.197Z,18.87
2024-05-09T12:03:27.835Z,18.84
2024-05-09T12:06:30.545Z,18.89
2024-05-09T12:09:34.064Z,18.94
2024-05-09T12:12:37.520Z,19.02
2024-05-09T12:15:40.277Z,19.09
2024-05-09T12:18:42.896Z,19.10
2024-05-09T12:21:45.539Z,19.10
2024-05-09T12:24:48.023Z,19.13
2024-05-09T12:27:50.845Z,19.16
2024-05-09T12:30:53.378Z,19.24
2024-05-09T12:33:55.981Z,19.36
2024-05-09T12:36:58.736Z,19.47
2024-05-09T12:40:01.275Z,19.52
2024-05-09T12:43:04.483Z,19.54
2024-05-09T12:46:07.337Z,19.60
2024-05-09T12:49:10.071Z,19.69
2024-05-09T12:52:12.999Z,19.76
2024-05-09T12:55:15.671Z,19.73
2024-05-09T12:58:18.937Z,19.74
2024-05-09T13:01:21.840Z,19.76
2024-05-09T13:04:24.583Z,19.71
2024-05-09T13:07:27.292Z,19.75
2024-05-09T13:10:32.725Z,19.84
2024-05-09T13:13:36.028Z,19.85
2024-05-09T13:16:38.689Z,19.77
2024-05-09T13:19:41.226Z,19.64
2024-05-09T13:22:44.329Z,19.63
2024-05-09T13:25:46.915Z,19.77
2024-05-09T13:28:49.379Z,19.95
2024-05-09T13:31:51.883Z,20.02
2024-05-09T13:34:54.416Z,20.01
2024-05-09T13:37:56.918Z,20.01
2024-05-09T13:40:59.458Z,20.05
2024-05-09T13:44:03.384Z,20.11
2024-05-09T13:47:06.050Z,20.15
2024-05-09T13:50:14.084Z,20.21
2024-05-09T13:53:19.299Z,20.41
2024-05-09T13:56:21.867Z,20.53
2024-05-09T13:59:24.398Z,20.58
2024-05-09T14:02:26.991Z,20.63
2024-05-09T14:05:30.696Z,20.71
2024-05-09T14:08:33.355Z,20.82
2024-05-09T14:11:36.658Z,20.95
2024-05-09T14:14:39.287Z,21.04
2024-05-09T14:17:41.951Z,20.97
2024-05-09T14:20:44.493Z,20.96
2024-05-09T14:23:46.967Z,20.99
2024-05-09T14:26:49.644Z,21.09
2024-05-09T14:29:52.063Z,21.14
2024-05-09T14:32:54.625Z,21.11
2024-05-09T14:35:57.381Z,21.03
2024-05-09T14:38:59.988Z,20.96
2024-05-09T14:42:02.462Z,20.96
2024-05-09T14:45:06.053Z,21.01
2024-05-09T14:48:08.957Z,20.95
2024-05-09T14:51:11.714Z,20.86
2024-05-09T14:54:14.270Z,20.68
2024-05-09T14:57:16.792Z,20.71
2024-05-09T15:00:26.238Z,20.85
2024-05-09T15:03:35.438Z,21.01
2024-05-09T15:06:39.754Z,21.11
2024-05-09T15:09:42.372Z,21.24
2024-05-09T15:12:44.903Z,21.29
2024-05-09T15:15:47.888Z,21.40
2024-05-09T15:18:50.972Z,21.41
2024-05-09T15:21:53.556Z,21.36
2024-05-09T15:24:56.134Z,21.35
2024-05-09T15:27:58.866Z,21.28
2024-05-09T15:31:01.403Z,21.16
2024-05-09T15:34:04.075Z,20.99
2024-05-09T15:37:07.295Z,20.83
2024-05-09T15:40:15.266Z,20.73
2024-05-09T15:43:24.962Z,20.69
2024-05-09T15:46:27.765Z,20.79
2024-05-09T15:49:30.758Z,20.97
2024-05-09T15:52:33.542Z,21.00
2024-05-09T15:55:36.287Z,20.91
2024-05-09T15:58:39.045Z,20.72
2024-05-09T16:01:41.742Z,20.50
2024-05-09T16:04:44.355Z,20.27
2024-05-09T16:07:46.988Z,20.08
2024-05-09T16:10:49.641Z,19.93
2024-05-09T16:13:52.224Z,19.72
2024-05-09T16:16:54.898Z,19.49
2024-05-09T16:19:57.511Z,19.24
2024-05-09T16:23:00.129Z,19.02
2024-05-09T16:26:02.672Z,18.88
2024-05-09T16:29:05.156Z,18.75
2024-05-09T16:32:07.769Z,18.63
2024-05-09T16:35:10.325Z,18.57
2024-05-09T16:38:13.358Z,18.56
2024-05-09T16:41:16.131Z,18.63
2024-05-09T16:44:18.688Z,18.75
2024-05-09T16:47:21.327Z,18.91
2024-05-09T16:50:29.400Z,19.05
2024-05-09T16:53:35.786Z,19.11
2024-05-09T16:56:38.324Z,19.27
2024-05-09T16:59:40.822Z,19.63
2024-05-09T17:02:46.104Z,19.80
2024-05-09T17:05:50.292Z,19.60
2024-05-09T17:08:53.131Z,19.51
2024-05-09T17:11:56.581Z,19.21
2024-05-09T17:14:59.080Z,18.82
2024-05-09T17:18:02.243Z,18.69
2024-05-09T17:21:05.184Z,18.78
2024-05-09T17:24:07.648Z,18.91
2024-05-09T17:27:10.334Z,19.06
2024-05-09T17:30:17.946Z,19.14
2024-05-09T17:33:28.568Z,19.24
2024-05-09T17:36:31.202Z,19.27
2024-05-09T17:39:34.010Z,19.17
2024-05-09T17:42:36.593Z,18.82
2024-05-09T17:45:40.970Z,18.34
2024-05-09T17:48:44.539Z,17.85
2024-05-09T17:51:54.095Z,17.41
2024-05-09T17:54:56.603Z,17.00
2024-05-09T17:57:59.265Z,16.64
2024-05-09T18:01:01.984Z,16.31
2024-05-09T18:04:05.208Z,16.03
2024-05-09T18:07:07.792Z,15.77
2024-05-09T18:10:19.253Z,15.52
2024-05-09T18:13:28.762Z,15.29
2024-05-09T18:16:31.693Z,15.07
2024-05-09T18:19:34.577Z,14.84
2024-05-09T18:22:37.312Z,14.63
2024-05-09T18:25:39.921Z,14.40
2024-05-09T18:28:42.435Z,14.24
2024-05-09T18:31:44.951Z,14.09
2024-05-09T18:34:47.548Z,13.94
2024-05-09T18:37:50.117Z,13.80
2024-05-09T18:40:53.520Z,13.67
2024-05-09T18:43:57.067Z,13.52
2024-05-09T18:46:59.823Z,13.33
2024-05-09T18:50:02.462Z,13.15
2024-05-09T18:53:05.909Z,13.04
2024-05-09T18:56:08.821Z,12.94
2024-05-09T18:59:11.300Z,12.84
2024-05-09T19:02:14.011Z,12.72
2024-05-09T19:05:16.674Z,12.57
2024-05-09T19:08:19.264Z,12.37
2024-05-09T19:11:21.744Z,12.16
2024-05-09T19:14:25.134Z,11.96
2024-05-09T19:17:29.401Z,11.77
2024-05-09T19:20:34.807Z,11.59
2024-05-09T19:23:44.320Z,11.40
2024-05-09T19:26:53.623Z,11.23
2024-05-09T19:29:57.838Z,11.09
2024-05-09T19:33:00.622Z,10.96
2024-05-09T19:36:03.592Z,10.83
2024-05-09T19:39:06.166Z,10.71
2024-05-09T19:42:08.859Z,10.59
2024-05-09T19:45:13.067Z,10.48
2024-05-09T19:48:16.120Z,10.38
2024-05-09T19:51:18.738Z,10.29
2024-05-09T19:54:21.248Z,10.21
2024-05-09T19:57:23.780Z,10.15
2024-05-09T20:00:32.697Z,10.12
2024-05-09T20:03:38.538Z,10.09
2024-05-09T20:06:41.477Z,10.03
2024-05-09T20:09:43.965Z,9.98
2024-05-09T20:12:46.467Z,9.95
2024-05-09T20:15:49.098Z,9.93
2024-05-09T20:18:51.783Z,9.92
2024-05-09T20:21:54.483Z,9.90
2024-05-09T20:24:57.077Z,9.86
2024-05-09T20:27:59.703Z,9.77
2024-05-09T20:31:02.830Z,9.66
2024-05-09T20:34:05.396Z,9.53
2024-05-09T20:37:09.140Z,9.40
2024-05-09T20:40:18.435Z,9.26
2024-05-09T20:43:27.857Z,9.12
2024-05-09T20:46:30.426Z,9.02
2024-05-09T20:49:33.083Z,8.91
2024-05-09T20:52:35.789Z,8.81
2024-05-09T20:55:39.132Z,8.70
2024-05-09T20:58:41.610Z,8.61
2024-05-09T21:01:48.817Z,8.51
2024-05-09T21:04:51.911Z,8.39
2024-05-09T21:07:54.460Z,8.29
2024-05-09T21:10:56.971Z,8.21
2024-05-09T21:13:59.460Z,8.13
2024-05-09T21:17:02.047Z,8.05
2024-05-09T21:20:11.303Z,7.99
2024-05-09T21:23:16.733Z,7.93
2024-05-09T21:26:20.205Z,7.86
2024-05-09T21:29:22.697Z,7.79
2024-05-09T21:32:25.293Z,7.72
2024-05-09T21:35:27.859Z,7.65
2024-05-09T21:38:30.548Z,7.60
2024-05-09T21:41:32.998Z,7.55
2024-05-09T21:44:35.539Z,7.49
2024-05-09T21:47:38.185Z,7.45
2024-05-09T21:50:42.513Z,7.39
2024-05-09T21:53:45.711Z,7.35
2024-05-09T21:56:48.232Z,7.31
2024-05-09T21:59:50.720Z,7.30
2024-05-09T22:02:53.379Z,7.27
2024-05-09T22:05:56.181Z,7.24
2024-05-09T22:08:58.720Z,7.21
2024-05-09T22:12:04.457Z,7.16
2024-05-09T22:15:07.062Z,7.10
2024-05-09T22:18:10.751Z,7.04
2024-05-09T22:21:14.380Z,6.99
2024-05-09T22:24:16.960Z,6.93
2024-05-09T22:27:19.459Z,6.88
2024-05-09T22:30:27.912Z,6.83
2024-05-09T22:33:37.393Z,6.80
2024-05-09T22:36:40.044Z,6.75
2024-05-09T22:39:42.707Z,6.71
2024-05-09T22:42:45.255Z,6.65
2024-05-09T22:45:47.868Z,6.59
2024-05-09T22:48:50.508Z,6.55
2024-05-09T22:51:53.031Z,6.50
2024-05-09T22:54:55.843Z,6.44
2024-05-09T22:57:58.482Z,6.39
2024-05-09T23:01:01.118Z,6.34
2024-05-09T23:04:04.119Z,6.30
2024-05-09T23:07:07.110Z,6.25
2024-05-09T23:10:13.456Z,6.20
2024-05-09T23:13:23.431Z,6.14
2024-05-09T23:16:26.117Z,6.10
2024-05-09T23:19:28.831Z,6.05
2024-05-09T23:22:31.379Z,6.01
2024-05-09T23:25:34.678Z,5.96
2024-05-09T23:28:37.304Z,5.93
2024-05-09T23:31:41.355Z,5.90
2024-05-09T23:34:43.878Z,5.88
2024-05-09T23:37:46.376Z,5.86
2024-05-09T23:40:48.934Z,5.83
2024-05-09T23:43:51.485Z,5.81
2024-05-09T23:46:54.092Z,5.77
2024-05-09T23:49:56.765Z,5.74
2024-05-09T23:52:59.190Z,5.71
2024-05-09T23:56:01.707Z,5.69
2024-05-09T23:59:04.227Z,5.67
